Time;durP1;ratioP1;P1;durP2;ratioP2;P2;SDS_P1;SDS_P2;PMS_P1;PMS_P2;Temp;Humidity;BMP_temperature;BMP_pressure;BME280_temperature;BME280_humidity;BME280_pressure;Samples;Min_cycle;Max_cycle;Signal;HPM_P1;HPM_P2
2021/01/20 05:01:22;;;;;;;6.50;5.80;;;6.70;99.90;;;;;;5497497;23;20271;-70
2021/01/20 05:03:49;;;;;;;6.85;6.18;;;6.70;99.90;;;;;;4934004;29;20206;-71
2021/01/20 05:06:15;;;;;;;7.13;6.35;;;6.70;99.90;;;;;;4934506;28;20223;-70
2021/01/20 05:08:41;;;;;;;7.72;5.80;;;6.70;99.90;;;;;;4934317;29;20281;-70
2021/01/20 05:11:07;;;;;;;5.75;5.35;;;6.70;99.90;;;;;;4928509;29;20229;-72
2021/01/20 05:13:33;;;;;;;6.30;5.70;;;6.70;99.90;;;;;;4916055;29;20202;-72
2021/01/20 05:16:00;;;;;;;6.35;5.00;;;6.70;99.90;;;;;;4919713;29;20210;-72
2021/01/20 05:18:26;;;;;;;7.63;5.60;;;6.70;99.90;;;;;;4919055;29;20229;-72
2021/01/20 05:20:53;;;;;;;5.60;5.20;;;6.70;99.90;;;;;;4919522;29;20234;-72
2021/01/20 05:23:25;;;;;;;5.80;5.22;;;6.70;99.90;;;;;;4918870;29;20210;-72
2021/01/20 05:25:52;;;;;;;5.18;4.68;;;6.70;99.90;;;;;;4919353;29;20290;-72
2021/01/20 05:28:20;;;;;;;5.38;4.45;;;6.70;99.90;;;;;;4918075;29;20202;-72
2021/01/20 05:30:48;;;;;;;5.82;5.28;;;6.70;99.90;;;;;;4919723;29;20235;-73
2021/01/20 05:33:16;;;;;;;4.28;3.88;;;6.70;99.90;;;;;;4919521;29;20569;-73
2021/01/20 05:35:44;;;;;;;4.13;3.83;;;6.60;99.90;;;;;;4919507;29;20219;-73
2021/01/20 05:38:10;;;;;;;4.43;3.95;;;6.70;99.90;;;;;;4919510;29;20222;-73
2021/01/20 05:40:37;;;;;;;5.10;4.30;;;6.70;99.90;;;;;;4920008;29;20227;-73
2021/01/20 05:43:05;;;;;;;4.30;4.05;;;6.70;99.90;;;;;;4919259;29;20237;-73
2021/01/20 05:45:31;;;;;;;3.92;3.72;;;6.70;99.90;;;;;;4919156;29;20221;-73
2021/01/20 05:48:01;;;;;;;4.57;4.18;;;6.70;99.90;;;;;;4919086;29;20194;-73
2021/01/20 05:50:27;;;;;;;4.70;4.32;;;6.60;99.90;;;;;;4919353;29;20588;-73
2021/01/20 05:53:10;;;;;;;5.90;5.07;;;6.60;99.90;;;;;;4919168;29;20214;-73
2021/01/20 05:55:38;;;;;;;4.53;4.13;;;6.50;99.90;;;;;;4919301;29;20198;-73
2021/01/20 05:58:05;;;;;;;5.57;4.80;;;6.50;99.90;;;;;;4919002;29;20290;-74
2021/01/20 06:00:31;;;;;;;5.07;4.57;;;6.50;99.90;;;;;;4918902;29;20520;-73
2021/01/20 06:02:58;;;;;;;6.47;4.05;;;6.40;99.90;;;;;;4918993;29;20199;-73
2021/01/20 06:05:25;;;;;;;5.40;5.00;;;6.40;99.90;;;;;;4918341;29;20297;-72
2021/01/20 06:07:51;;;;;;;6.43;4.47;;;6.40;99.90;;;;;;4917967;29;20203;-72
2021/01/20 06:10:19;;;;;;;9.30;5.05;;;6.30;99.90;;;;;;4918516;29;20293;-72
2021/01/20 06:12:47;;;;;;;5.18;4.78;;;6.30;99.90;;;;;;4917102;29;20211;-72
2021/01/20 06:15:13;;;;;;;6.32;5.90;;;6.30;99.90;;;;;;4918365;29;20207;-72
2021/01/20 06:17:42;;;;;;;8.02;6.20;;;6.20;99.90;;;;;;4918160;29;20564;-72
2021/01/20 06:20:09;;;;;;;5.57;5.25;;;6.20;99.90;;;;;;4919702;29;20233;-73
2021/01/20 06:22:44;;;;;;;5.00;4.57;;;6.30;99.90;;;;;;4919999;29;20587;-72
2021/01/20 06:25:14;;;;;;;5.13;4.75;;;6.20;99.90;;;;;;4920569;29;20211;-73
2021/01/20 06:27:43;;;;;;;5.97;5.50;;;6.30;99.90;;;;;;4918614;29;20210;-72
2021/01/20 06:30:13;;;;;;;7.22;5.35;;;6.30;99.90;;;;;;4919754;29;20544;-73
2021/01/20 06:32:44;;;;;;;9.50;5.75;;;6.40;99.90;;;;;;4919427;29;20211;-72
2021/01/20 06:35:11;;;;;;;6.22;5.63;;;6.40;99.90;;;;;;4918406;29;20687;-72
2021/01/20 06:37:39;;;;;;;6.05;5.43;;;6.40;99.90;;;;;;4919145;29;20215;-72
2021/01/20 06:40:38;;;;;;;7.03;4.72;;;6.40;99.90;;;;;;4916852;29;20214;-71
2021/01/20 06:43:33;;;;;;;5.70;5.15;;;6.40;99.90;;;;;;4917179;29;20206;-72
2021/01/20 06:46:20;;;;;;;7.57;5.35;;;6.50;99.90;;;;;;4918292;29;20344;-72
2021/01/20 06:49:11;;;;;;;6.95;4.70;;;6.50;99.90;;;;;;4917882;29;20505;-71
2021/01/20 06:51:39;;;;;;;6.13;5.55;;;6.50;99.90;;;;;;4912793;29;20257;-69
2021/01/20 06:54:08;;;;;;;8.77;5.20;;;6.50;99.90;;;;;;4917458;29;20207;-71
2021/01/20 06:56:37;;;;;;;5.20;4.70;;;6.50;99.90;;;;;;4917354;29;20273;-72
2021/01/20 06:59:24;;;;;;;4.57;4.18;;;6.60;99.90;;;;;;4917410;29;20713;-72
2021/01/20 07:02:12;;;;;;;5.03;4.63;;;6.60;99.90;;;;;;4918369;29;20270;-71
2021/01/20 07:04:55;;;;;;;5.22;4.75;;;6.60;99.90;;;;;;4918981;29;20266;-72
2021/01/20 07:07:49;;;;;;;6.03;5.45;;;6.60;99.90;;;;;;4918501;29;20211;-71
2021/01/20 07:10:15;;;;;;;4.80;4.47;;;6.60;99.90;;;;;;4918489;29;20572;-71
2021/01/20 07:13:18;;;;;;;5.65;5.05;;;6.60;99.90;;;;;;4916812;29;20207;-71
2021/01/20 07:15:49;;;;;;;4.40;4.10;;;6.70;99.90;;;;;;4919276;29;20206;-71
2021/01/20 07:18:17;;;;;;;4.35;4.03;;;6.70;99.90;;;;;;4918799;29;20234;-71
2021/01/20 07:20:44;;;;;;;6.00;5.50;;;6.70;99.90;;;;;;4919526;29;20730;-71
2021/01/20 07:23:11;;;;;;;5.85;4.38;;;6.70;99.90;;;;;;4917918;29;20213;-71
2021/01/20 07:25:38;;;;;;;6.40;5.80;;;6.70;99.90;;;;;;4912275;29;20218;-72
2021/01/20 07:28:04;;;;;;;12.57;10.05;;;6.70;99.90;;;;;;4917585;29;20218;-71
2021/01/20 07:30:32;;;;;;;8.95;8.05;;;6.70;99.90;;;;;;4917851;29;20298;-72
2021/01/20 07:32:58;;;;;;;18.65;9.25;;;6.80;99.90;;;;;;4916719;29;20211;-71
2021/01/20 07:35:26;;;;;;;13.00;8.88;;;6.80;99.90;;;;;;4917926;29;20253;-69
2021/01/20 07:38:03;;;;;;;7.65;6.15;;;6.70;99.90;;;;;;4916489;29;20348;-69
2021/01/20 07:40:30;;;;;;;7.65;6.95;;;6.80;99.90;;;;;;4917146;29;20227;-68
2021/01/20 07:42:57;;;;;;;9.15;7.72;;;6.80;99.90;;;;;;4915272;29;20218;-68
2021/01/20 07:45:35;;;;;;;9.88;8.88;;;6.80;99.90;;;;;;4910975;29;20622;-69
2021/01/20 07:48:02;;;;;;;12.65;8.65;;;6.80;99.90;;;;;;4915264;29;20203;-69
2021/01/20 07:50:39;;;;;;;12.88;8.18;;;6.90;99.90;;;;;;4913541;29;20565;-68
2021/01/20 07:53:06;;;;;;;17.50;12.35;;;6.90;99.90;;;;;;4914737;29;20217;-69
2021/01/20 07:55:32;;;;;;;9.50;8.50;;;6.90;99.90;;;;;;4902985;29;20310;-69
2021/01/20 07:58:00;;;;;;;12.32;9.57;;;6.90;99.90;;;;;;4900672;29;20226;-69
2021/01/20 08:00:26;;;;;;;12.15;9.88;;;7.00;99.90;;;;;;4915245;29;20238;-69
2021/01/20 08:02:53;;;;;;;6.88;6.03;;;7.00;99.90;;;;;;4903194;29;20230;-69
2021/01/20 08:05:20;;;;;;;9.10;8.05;;;7.00;99.90;;;;;;4910172;29;20214;-69
2021/01/20 08:07:46;;;;;;;8.23;7.40;;;7.00;99.90;;;;;;4914913;29;20336;-69
2021/01/20 08:10:19;;;;;;;10.80;5.75;;;7.00;99.90;;;;;;4915784;29;20214;-69
2021/01/20 08:12:46;;;;;;;12.60;11.20;;;7.10;99.90;;;;;;4907731;29;20593;-71
2021/01/20 08:15:15;;;;;;;13.75;10.50;;;7.10;99.90;;;;;;4911841;29;20214;-71
2021/01/20 08:17:42;;;;;;;9.77;8.77;;;7.10;99.90;;;;;;4916012;29;20215;-71
2021/01/20 08:20:11;;;;;;;7.55;6.65;;;7.20;99.90;;;;;;4916386;29;20215;-70
2021/01/20 08:22:39;;;;;;;12.10;8.27;;;7.20;99.90;;;;;;4916000;29;20273;-71
2021/01/20 08:25:08;;;;;;;9.63;8.45;;;7.20;99.90;;;;;;4917047;29;20730;-71
2021/01/20 08:27:37;;;;;;;6.55;5.95;;;7.20;99.90;;;;;;4918642;29;20211;-70
2021/01/20 08:30:08;;;;;;;4.70;4.30;;;7.20;99.90;;;;;;4917148;29;20277;-70
2021/01/20 08:32:34;;;;;;;7.70;5.88;;;7.20;99.90;;;;;;4915560;29;20214;-69
2021/01/20 08:35:00;;;;;;;5.82;5.32;;;7.30;99.90;;;;;;4916033;29;20747;-69
2021/01/20 08:37:35;;;;;;;5.03;4.70;;;7.30;99.90;;;;;;4915907;29;20213;-70
2021/01/20 08:40:04;;;;;;;6.38;5.78;;;7.30;99.90;;;;;;4897666;29;20226;-70
2021/01/20 08:42:39;;;;;;;5.03;4.80;;;7.30;99.90;;;;;;4914130;29;20207;-71
2021/01/20 08:45:14;;;;;;;3.97;3.67;;;7.40;99.90;;;;;;4915179;29;20261;-70
2021/01/20 08:47:49;;;;;;;8.07;5.30;;;7.40;99.90;;;;;;4915862;29;20627;-70
2021/01/20 08:50:18;;;;;;;7.78;6.65;;;7.40;99.90;;;;;;4914460;29;20218;-71
2021/01/20 08:52:47;;;;;;;5.95;5.50;;;7.50;99.90;;;;;;4915132;29;20214;-70
2021/01/20 08:55:21;;;;;;;6.35;5.85;;;7.50;99.90;;;;;;4914281;29;20703;-70
2021/01/20 08:57:47;;;;;;;6.93;6.32;;;7.50;99.90;;;;;;4914643;29;20235;-70
2021/01/20 09:00:14;;;;;;;7.97;7.25;;;7.50;99.90;;;;;;4918194;29;20730;-71
2021/01/20 09:02:40;;;;;;;6.63;6.03;;;7.50;99.90;;;;;;4921333;29;20306;-71
2021/01/20 09:05:08;;;;;;;6.40;5.90;;;7.50;99.90;;;;;;4921971;29;20207;-71
2021/01/20 09:07:34;;;;;;;7.20;6.60;;;7.50;99.90;;;;;;4921233;29;20213;-71
2021/01/20 09:10:01;;;;;;;4.07;3.78;;;7.50;99.90;;;;;;4916025;29;20210;-71
2021/01/20 09:12:27;;;;;;;3.80;3.60;;;7.50;99.90;;;;;;4914352;29;20289;-70
2021/01/20 09:14:53;;;;;;;5.22;4.72;;;7.60;99.90;;;;;;4915378;29;20210;-71
2021/01/20 09:17:20;;;;;;;4.50;4.20;;;7.60;99.90;;;;;;4915403;29;20202;-70
2021/01/20 09:19:46;;;;;;;5.53;5.05;;;7.60;99.90;;;;;;4915988;29;20588;-71
2021/01/20 09:22:12;;;;;;;4.28;3.90;;;7.70;99.90;;;;;;4914765;29;20218;-71
2021/01/20 09:24:38;;;;;;;4.45;4.03;;;7.70;99.90;;;;;;4915798;29;20556;-71
2021/01/20 09:27:05;;;;;;;4.65;4.25;;;7.70;99.90;;;;;;4915043;29;20199;-71
2021/01/20 09:29:31;;;;;;;5.03;4.63;;;7.70;99.90;;;;;;4915225;29;20207;-71
2021/01/20 09:31:57;;;;;;;3.83;3.63;;;7.70;99.90;;;;;;4914785;29;20234;-71
2021/01/20 09:34:25;;;;;;;3.83;3.63;;;7.70;99.90;;;;;;4915621;29;20294;-71
2021/01/20 09:36:51;;;;;;;4.05;3.85;;;7.70;99.90;;;;;;4915177;29;20206;-71
2021/01/20 09:39:17;;;;;;;3.42;3.25;;;7.70;99.90;;;;;;4915085;29;20226;-71
2021/01/20 09:41:43;;;;;;;3.55;3.35;;;7.70;99.90;;;;;;4914191;29;20238;-71
2021/01/20 09:44:10;;;;;;;4.00;3.60;;;7.70;99.90;;;;;;4915262;29;20273;-70
2021/01/20 09:46:36;;;;;;;5.10;4.60;;;7.70;99.90;;;;;;4914938;29;20588;-70
2021/01/20 09:49:02;;;;;;;4.30;4.00;;;7.70;99.90;;;;;;4915316;29;20203;-70
2021/01/20 09:51:30;;;;;;;4.65;3.75;;;7.70;99.90;;;;;;4914892;29;20227;-70
2021/01/20 09:53:56;;;;;;;4.40;4.10;;;7.70;99.90;;;;;;4914909;29;20298;-70
2021/01/20 09:56:22;;;;;;;4.80;4.40;;;7.70;99.90;;;;;;4916582;29;20238;-70
2021/01/20 09:58:48;;;;;;;3.90;3.70;;;7.80;99.90;;;;;;4917577;29;20249;-70
2021/01/20 10:01:15;;;;;;;3.72;3.53;;;7.80;99.90;;;;;;4918331;29;20237;-70
2021/01/20 10:03:41;;;;;;;6.20;5.70;;;7.80;99.90;;;;;;4920876;29;20533;-71
2021/01/20 10:06:07;;;;;;;7.40;6.10;;;7.80;99.90;;;;;;4919102;29;20199;-72
2021/01/20 10:08:33;;;;;;;7.00;6.50;;;7.80;99.90;;;;;;4918773;29;20663;-71
2021/01/20 10:10:59;;;;;;;7.28;6.65;;;7.90;99.90;;;;;;4918882;29;20310;-72
2021/01/20 10:13:26;;;;;;;8.05;7.28;;;7.90;99.90;;;;;;4919192;29;20226;-70
2021/01/20 10:15:52;;;;;;;11.27;10.10;;;7.90;99.90;;;;;;4919098;29;20216;-71
2021/01/20 10:18:19;;;;;;;5.90;5.30;;;8.00;99.90;;;;;;4917852;29;20230;-72
2021/01/20 10:20:50;;;;;;;5.53;5.10;;;8.00;99.90;;;;;;4917825;29;20234;-70
2021/01/20 10:23:16;;;;;;;5.10;4.70;;;8.00;99.90;;;;;;4917118;29;20269;-70
2021/01/20 10:25:45;;;;;;;4.72;4.32;;;8.00;99.90;;;;;;4918074;29;20217;-70
2021/01/20 10:28:11;;;;;;;5.50;5.10;;;8.00;99.90;;;;;;4916888;29;20205;-71
2021/01/20 10:30:37;;;;;;;4.07;3.88;;;8.10;99.90;;;;;;4917375;29;20226;-69
2021/01/20 10:33:03;;;;;;;5.60;4.90;;;8.10;99.90;;;;;;4916617;29;20286;-69
2021/01/20 10:35:30;;;;;;;4.10;3.42;;;8.10;99.90;;;;;;4917498;29;20210;-70
2021/01/20 10:37:57;;;;;;;3.58;3.28;;;8.00;99.90;;;;;;4916188;29;20222;-71
2021/01/20 10:40:24;;;;;;;5.47;4.95;;;8.10;99.90;;;;;;4917563;29;20254;-71
2021/01/20 10:42:50;;;;;;;4.03;3.83;;;8.20;99.90;;;;;;4915790;29;20214;-69
2021/01/20 10:45:17;;;;;;;3.92;3.63;;;8.20;99.90;;;;;;4919622;29;20699;-72
2021/01/20 10:47:43;;;;;;;3.53;3.33;;;8.40;99.90;;;;;;4919330;29;20203;-72
2021/01/20 10:50:10;;;;;;;3.65;3.45;;;8.30;99.90;;;;;;4919736;29;20211;-72
2021/01/20 10:52:37;;;;;;;3.28;3.00;;;8.40;99.90;;;;;;4919666;29;20213;-72
2021/01/20 10:55:03;;;;;;;2.75;2.65;;;8.40;99.90;;;;;;4916095;29;20211;-71
2021/01/20 10:57:30;;;;;;;2.90;2.75;;;8.40;99.90;;;;;;4913994;29;20214;-71
2021/01/20 10:59:56;;;;;;;2.78;2.67;;;8.50;99.90;;;;;;4918043;29;20289;-72
2021/01/20 11:02:23;;;;;;;2.90;2.80;;;8.50;99.90;;;;;;4917059;29;20329;-72
2021/01/20 11:04:49;;;;;;;2.60;2.50;;;8.60;99.90;;;;;;4918675;29;20206;-71
2021/01/20 11:07:17;;;;;;;2.80;2.70;;;8.60;99.90;;;;;;4917995;29;20599;-71
2021/01/20 11:09:44;;;;;;;3.05;3.03;;;8.60;99.90;;;;;;4918330;29;20199;-72
2021/01/20 11:12:10;;;;;;;2.90;2.90;;;8.70;99.90;;;;;;4917051;29;20244;-72
2021/01/20 11:14:36;;;;;;;3.05;2.85;;;8.70;99.90;;;;;;4917462;29;20207;-72
2021/01/20 11:17:02;;;;;;;4.57;4.15;;;8.80;99.90;;;;;;4918065;29;20210;-72
2021/01/20 11:19:29;;;;;;;2.85;2.65;;;8.90;99.90;;;;;;4918686;29;20226;-72
2021/01/20 11:21:55;;;;;;;2.58;2.38;;;8.90;99.90;;;;;;4918827;29;20235;-72
2021/01/20 11:24:22;;;;;;;3.45;3.15;;;8.90;99.90;;;;;;4919258;29;20207;-72
2021/01/20 11:26:49;;;;;;;2.30;2.20;;;8.90;99.90;;;;;;4921098;29;20202;-72
2021/01/20 11:29:15;;;;;;;2.90;2.80;;;8.90;99.90;;;;;;4920291;29;20675;-70
2021/01/20 11:31:41;;;;;;;3.63;2.25;;;8.90;99.90;;;;;;4915915;29;20230;-71
2021/01/20 11:34:07;;;;;;;2.70;2.60;;;9.00;99.90;;;;;;4915865;29;20217;-70
2021/01/20 11:36:33;;;;;;;2.25;2.25;;;8.90;99.90;;;;;;4916045;29;20234;-71
2021/01/20 11:38:59;;;;;;;2.67;2.53;;;8.90;99.90;;;;;;4916179;29;20302;-71
2021/01/20 11:41:26;;;;;;;2.42;2.33;;;8.90;99.90;;;;;;4916103;29;20245;-71
2021/01/20 11:43:53;;;;;;;2.45;2.25;;;8.90;99.90;;;;;;4911931;29;20218;-71
2021/01/20 11:46:20;;;;;;;2.30;2.20;;;9.00;99.90;;;;;;4913587;29;20214;-71
2021/01/20 11:48:47;;;;;;;3.70;3.38;;;9.00;99.90;;;;;;4915523;29;20206;-71
2021/01/20 11:51:14;;;;;;;5.10;4.68;;;9.10;99.90;;;;;;4910761;29;20566;-71
2021/01/20 11:53:40;;;;;;;5.20;4.68;;;9.10;99.90;;;;;;4909328;29;20198;-71
2021/01/20 11:56:06;;;;;;;3.90;3.60;;;9.00;99.90;;;;;;4912530;29;20202;-71
2021/01/20 11:58:32;;;;;;;2.75;2.55;;;9.10;99.90;;;;;;4896843;29;20231;-71
2021/01/20 12:00:59;;;;;;;4.63;4.30;;;9.10;99.90;;;;;;4917241;29;20285;-74
2021/01/20 12:03:25;;;;;;;2.63;2.50;;;9.10;99.90;;;;;;4920836;29;20636;-73
2021/01/20 12:05:52;;;;;;;3.95;3.65;;;9.10;99.90;;;;;;4923336;29;20206;-74
2021/01/20 12:08:18;;;;;;;2.90;2.80;;;9.10;99.90;;;;;;4923551;29;20206;-73
2021/01/20 12:10:44;;;;;;;3.00;2.80;;;9.20;99.90;;;;;;4921611;29;20298;-73
2021/01/20 12:13:11;;;;;;;8.25;6.18;;;9.20;99.90;;;;;;4917769;29;20259;-74
2021/01/20 12:15:37;;;;;;;2.70;2.45;;;9.20;99.90;;;;;;4916132;29;20541;-73
2021/01/20 12:18:05;;;;;;;3.40;3.20;;;9.30;99.90;;;;;;4919244;29;20648;-71
2021/01/20 12:20:32;;;;;;;4.45;4.15;;;9.30;99.90;;;;;;4905793;29;20722;-74
2021/01/20 12:22:58;;;;;;;2.53;2.13;;;9.30;99.90;;;;;;4912847;29;20667;-73
2021/01/20 12:25:24;;;;;;;2.90;2.78;;;9.40;99.90;;;;;;4922543;29;20211;-73
2021/01/20 12:27:50;;;;;;;2.60;2.40;;;9.40;99.90;;;;;;4921302;29;20210;-74
2021/01/20 12:30:18;;;;;;;2.60;2.50;;;9.40;99.90;;;;;;4924957;29;20235;-73
2021/01/20 12:32:44;;;;;;;2.25;2.15;;;9.50;99.90;;;;;;4914680;29;20212;-73
2021/01/20 12:35:11;;;;;;;3.03;2.78;;;9.50;99.90;;;;;;4915397;29;20230;-70
2021/01/20 12:37:37;;;;;;;3.30;3.10;;;9.50;99.90;;;;;;4914178;29;20226;-70
2021/01/20 12:40:04;;;;;;;2.50;2.40;;;9.60;99.90;;;;;;4915508;29;20233;-70
2021/01/20 12:42:30;;;;;;;2.72;2.58;;;9.60;99.90;;;;;;4912828;29;20230;-70
2021/01/20 12:44:56;;;;;;;2.05;1.98;;;9.60;99.90;;;;;;4915178;29;20221;-71
2021/01/20 12:47:23;;;;;;;2.60;2.50;;;9.60;99.90;;;;;;4914744;29;20580;-69
2021/01/20 12:49:49;;;;;;;30.08;16.25;;;9.60;99.90;;;;;;4915316;29;20211;-70
2021/01/20 12:52:16;;;;;;;8.50;7.13;;;9.60;99.90;;;;;;4913847;29;20466;-69
2021/01/20 12:54:42;;;;;;;21.63;14.88;;;9.70;99.90;;;;;;4912427;29;20210;-70
2021/01/20 12:57:08;;;;;;;10.07;9.07;;;9.70;99.90;;;;;;4914228;29;20218;-70
2021/01/20 12:59:34;;;;;;;3.45;3.20;;;9.60;99.90;;;;;;4913317;29;20274;-71
2021/01/20 13:02:00;;;;;;;10.32;9.48;;;9.70;99.90;;;;;;4913603;29;20318;-70
2021/01/20 13:04:29;;;;;;;9.60;8.48;;;9.70;99.90;;;;;;4914945;29;20702;-70
2021/01/20 13:06:55;;;;;;;17.58;12.95;;;9.80;99.90;;;;;;4914812;29;20213;-71
2021/01/20 13:09:22;;;;;;;4.93;4.55;;;9.80;99.90;;;;;;4913104;29;20203;-70
2021/01/20 13:11:48;;;;;;;4.72;3.20;;;9.80;99.90;;;;;;4913951;29;20241;-72
2021/01/20 13:14:14;;;;;;;7.30;6.60;;;9.80;99.90;;;;;;4915008;29;20214;-72
2021/01/20 13:16:43;;;;;;;7.97;7.18;;;9.70;99.90;;;;;;4914949;29;20211;-72
2021/01/20 13:19:09;;;;;;;2.78;2.67;;;9.80;99.90;;;;;;4915024;29;20227;-72
2021/01/20 13:21:35;;;;;;;2.10;2.00;;;9.70;99.90;;;;;;4914376;29;20253;-72
2021/01/20 13:24:01;;;;;;;7.90;6.28;;;9.70;99.90;;;;;;4914402;29;20207;-72
2021/01/20 13:26:28;;;;;;;4.35;3.92;;;9.70;99.90;;;;;;4915075;29;20214;-73
2021/01/20 13:28:54;;;;;;;8.52;7.78;;;9.70;99.90;;;;;;4914567;29;20207;-71
2021/01/20 13:31:21;;;;;;;8.27;7.68;;;9.70;99.90;;;;;;4917924;29;20573;-73
2021/01/20 13:33:47;;;;;;;5.53;5.25;;;9.70;99.90;;;;;;4918993;29;20647;-73
2021/01/20 13:36:13;;;;;;;5.78;5.38;;;9.80;99.90;;;;;;4919690;29;20203;-74
2021/01/20 13:38:39;;;;;;;15.25;7.53;;;9.80;99.90;;;;;;4918921;29;20377;-73
2021/01/20 13:41:06;;;;;;;5.60;5.13;;;9.70;99.90;;;;;;4919147;29;20249;-75
2021/01/20 13:43:33;;;;;;;8.90;7.97;;;9.80;99.90;;;;;;4918978;29;20389;-74
2021/01/20 13:45:59;;;;;;;5.85;5.45;;;9.70;99.90;;;;;;4919271;29;20551;-74
2021/01/20 13:48:25;;;;;;;6.80;5.97;;;9.80;99.90;;;;;;4920001;29;20214;-73
2021/01/20 13:50:51;;;;;;;10.27;6.00;;;9.70;99.90;;;;;;4920638;29;20368;-73
2021/01/20 13:53:17;;;;;;;15.75;12.70;;;9.70;99.90;;;;;;4917929;29;20218;-73
2021/01/20 13:55:44;;;;;;;2.83;2.45;;;9.70;99.90;;;;;;4917865;29;20219;-72
2021/01/20 13:58:10;;;;;;;10.25;7.38;;;9.70;99.90;;;;;;4917003;29;20656;-73
2021/01/20 14:00:37;;;;;;;6.18;5.68;;;9.70;99.90;;;;;;4918654;29;20257;-73
2021/01/20 14:03:04;;;;;;;2.10;2.08;;;9.70;99.90;;;;;;4919682;29;20206;-72
2021/01/20 14:05:30;;;;;;;9.05;8.07;;;9.80;99.90;;;;;;4919175;29;20217;-73
2021/01/20 14:07:56;;;;;;;2.50;2.40;;;9.70;99.90;;;;;;4917550;29;20234;-72
2021/01/20 14:10:22;;;;;;;5.13;4.72;;;9.80;99.90;;;;;;4920113;29;20198;-73
2021/01/20 14:12:48;;;;;;;6.82;6.13;;;9.80;99.90;;;;;;4918417;29;20217;-72
2021/01/20 14:15:14;;;;;;;5.80;5.32;;;9.80;99.90;;;;;;4920793;29;20319;-72
2021/01/20 14:17:41;;;;;;;4.00;3.70;;;9.80;99.90;;;;;;4920374;29;20214;-72
2021/01/20 14:20:08;;;;;;;6.28;5.78;;;9.80;99.90;;;;;;4920068;29;20285;-72
2021/01/20 14:22:34;;;;;;;5.68;5.28;;;9.80;99.90;;;;;;4918862;29;20214;-72
2021/01/20 14:25:01;;;;;;;6.55;6.15;;;9.80;99.90;;;;;;4921074;29;20725;-72
2021/01/20 14:27:28;;;;;;;3.58;3.28;;;9.80;99.90;;;;;;4919271;29;20301;-72
2021/01/20 14:29:54;;;;;;;5.00;4.70;;;9.80;99.90;;;;;;4920813;29;20195;-73
2021/01/20 14:32:21;;;;;;;3.47;2.92;;;9.90;99.90;;;;;;4919416;29;20604;-72
2021/01/20 14:34:48;;;;;;;2.40;2.30;;;9.90;99.90;;;;;;4918836;29;20210;-72
2021/01/20 14:37:14;;;;;;;3.38;3.17;;;9.80;99.90;;;;;;4920191;29;20210;-73
2021/01/20 14:39:40;;;;;;;3.05;2.97;;;9.80;99.90;;;;;;4919030;29;20635;-76
2021/01/20 14:42:06;;;;;;;2.28;2.28;;;9.80;99.90;;;;;;4918659;29;20724;-71
2021/01/20 14:44:32;;;;;;;2.10;2.10;;;9.80;99.90;;;;;;4918142;29;20214;-73
2021/01/20 14:46:59;;;;;;;2.80;2.60;;;9.80;99.90;;;;;;4919070;29;20217;-74
2021/01/20 14:49:25;;;;;;;3.97;3.67;;;9.70;99.90;;;;;;4917908;29;20703;-75
2021/01/20 14:51:52;;;;;;;18.92;12.18;;;9.70;99.90;;;;;;4901227;29;20730;-72
2021/01/20 14:54:18;;;;;;;8.10;7.25;;;9.70;99.90;;;;;;4919057;29;20210;-72
2021/01/20 14:56:44;;;;;;;14.30;10.10;;;9.70;99.90;;;;;;4917870;29;20210;-72
2021/01/20 14:59:10;;;;;;;9.50;8.45;;;9.70;99.90;;;;;;4918262;29;20703;-72
2021/01/20 15:01:36;;;;;;;28.38;19.20;;;9.60;99.90;;;;;;4918219;29;20790;-70
2021/01/20 15:04:03;;;;;;;12.23;10.45;;;9.60;99.90;;;;;;4918972;29;20219;-73
2021/01/20 15:06:29;;;;;;;5.07;4.68;;;9.60;99.90;;;;;;4916563;29;20316;-73
2021/01/20 15:08:56;;;;;;;13.05;10.93;;;9.50;99.90;;;;;;4910634;29;20203;-73
2021/01/20 15:11:22;;;;;;;9.23;7.15;;;9.50;99.90;;;;;;4918650;29;20589;-72
2021/01/20 15:13:48;;;;;;;10.77;9.68;;;9.50;99.90;;;;;;4918086;29;20210;-72
2021/01/20 15:16:14;;;;;;;7.22;4.35;;;9.50;99.90;;;;;;4918383;29;20282;-73
2021/01/20 15:18:40;;;;;;;2.50;2.30;;;9.50;99.90;;;;;;4917830;29;20230;-72
2021/01/20 15:21:08;;;;;;;2.72;2.63;;;9.40;99.90;;;;;;4919152;29;20227;-73
2021/01/20 15:23:34;;;;;;;2.42;2.10;;;9.40;99.90;;;;;;4918092;29;20217;-72
2021/01/20 15:26:03;;;;;;;3.70;2.72;;;9.40;99.90;;;;;;4918859;29;20210;-72
2021/01/20 15:28:30;;;;;;;2.70;2.50;;;9.40;99.90;;;;;;4916448;29;20210;-73
2021/01/20 15:30:57;;;;;;;3.33;3.13;;;9.40;99.90;;;;;;4899683;29;20254;-72
2021/01/20 15:33:23;;;;;;;3.63;3.42;;;9.30;99.90;;;;;;4906062;29;20552;-72
2021/01/20 15:35:51;;;;;;;3.90;3.70;;;9.30;99.90;;;;;;4916852;29;20213;-72
2021/01/20 15:38:19;;;;;;;3.08;2.72;;;9.30;99.90;;;;;;4917569;29;20209;-72
2021/01/20 15:40:45;;;;;;;3.58;3.25;;;9.30;99.90;;;;;;4916825;29;20699;-71
2021/01/20 15:43:12;;;;;;;4.88;4.47;;;9.30;99.90;;;;;;4915547;29;20211;-72
2021/01/20 15:45:39;;;;;;;3.17;2.95;;;9.30;99.90;;;;;;4917097;29;20518;-72
2021/01/20 15:48:05;;;;;;;4.75;4.43;;;9.20;99.90;;;;;;4915712;29;20211;-72
2021/01/20 15:50:31;;;;;;;2.60;2.50;;;9.30;99.90;;;;;;4916915;29;20702;-72
2021/01/20 15:52:57;;;;;;;2.20;2.00;;;9.20;99.90;;;;;;4915872;29;20222;-72
2021/01/20 15:55:23;;;;;;;2.55;2.35;;;9.20;99.90;;;;;;4915802;29;20206;-71
2021/01/20 15:57:50;;;;;;;2.72;2.63;;;9.20;99.90;;;;;;4914946;29;20679;-70
2021/01/20 16:00:17;;;;;;;1.98;1.98;;;9.20;99.90;;;;;;4915893;29;20231;-70
2021/01/20 16:02:43;;;;;;;2.67;2.63;;;9.20;99.90;;;;;;4915245;29;20270;-70
2021/01/20 16:05:10;;;;;;;2.45;2.35;;;9.20;99.90;;;;;;4915863;29;20569;-69
2021/01/20 16:07:37;;;;;;;2.30;2.25;;;9.20;99.90;;;;;;4915424;29;20214;-69
2021/01/20 16:10:05;;;;;;;3.30;3.10;;;9.20;99.90;;;;;;4916267;29;20203;-71
2021/01/20 16:12:31;;;;;;;3.10;2.90;;;9.20;99.90;;;;;;4915921;29;20202;-71
2021/01/20 16:14:57;;;;;;;2.85;2.70;;;9.10;99.90;;;;;;4916869;29;20301;-73
2021/01/20 16:17:24;;;;;;;2.70;2.50;;;9.20;99.90;;;;;;4918401;29;20297;-72
2021/01/20 16:19:50;;;;;;;2.05;2.05;;;9.20;99.90;;;;;;4916868;29;20234;-73
2021/01/20 16:22:16;;;;;;;2.20;2.10;;;9.20;99.90;;;;;;4911711;29;20240;-72
2021/01/20 16:24:42;;;;;;;2.58;2.42;;;9.20;99.90;;;;;;4914432;29;20257;-73
2021/01/20 16:27:08;;;;;;;2.30;2.20;;;9.20;99.90;;;;;;4914527;29;20218;-71
2021/01/20 16:29:34;;;;;;;2.22;2.13;;;9.20;99.90;;;;;;4913805;29;20207;-71
2021/01/20 16:32:00;;;;;;;2.50;2.30;;;9.20;99.90;;;;;;4915175;29;20222;-72
2021/01/20 16:34:27;;;;;;;2.42;2.00;;;9.20;99.90;;;;;;4918316;29;20254;-72
2021/01/20 16:36:53;;;;;;;1.73;1.70;;;9.20;99.90;;;;;;4918392;29;20571;-73
2021/01/20 16:39:19;;;;;;;2.00;1.90;;;9.20;99.90;;;;;;4917507;29;20223;-71
2021/01/20 16:41:46;;;;;;;2.72;2.47;;;9.20;99.90;;;;;;4916982;29;20982;-72
2021/01/20 16:44:12;;;;;;;2.13;1.98;;;9.20;99.90;;;;;;4917554;29;20206;-72
2021/01/20 16:46:38;;;;;;;2.28;2.17;;;9.20;99.90;;;;;;4916473;29;20647;-72
2021/01/20 16:49:04;;;;;;;2.38;2.28;;;9.20;99.90;;;;;;4916429;29;20226;-72
2021/01/20 16:51:31;;;;;;;1.95;1.85;;;9.20;99.90;;;;;;4915770;29;20226;-72
2021/01/20 16:53:58;;;;;;;2.17;2.10;;;9.30;99.90;;;;;;4916794;29;20210;-72
2021/01/20 16:56:24;;;;;;;2.45;2.38;;;9.20;99.90;;;;;;4916581;29;20214;-72
2021/01/20 16:58:50;;;;;;;2.40;2.30;;;9.20;99.90;;;;;;4916144;29;20230;-72
2021/01/20 17:01:16;;;;;;;2.28;2.17;;;9.20;99.90;;;;;;4912317;29;20246;-70
2021/01/20 17:03:42;;;;;;;4.13;3.92;;;9.20;99.90;;;;;;4917466;29;20218;-70
2021/01/20 17:06:08;;;;;;;3.45;3.13;;;9.10;99.90;;;;;;4919329;29;20209;-71
2021/01/20 17:08:37;;;;;;;2.25;2.10;;;9.10;99.90;;;;;;4918934;29;20218;-70
2021/01/20 17:11:03;;;;;;;3.72;3.63;;;9.10;99.90;;;;;;4918638;29;20561;-70
2021/01/20 17:13:29;;;;;;;3.40;3.20;;;9.10;99.90;;;;;;4917256;29;20317;-71
2021/01/20 17:15:55;;;;;;;3.20;3.00;;;9.10;99.90;;;;;;4918885;29;20656;-71
2021/01/20 17:18:22;;;;;;;2.90;2.80;;;9.10;99.90;;;;;;4918832;29;20214;-72
2021/01/20 17:20:49;;;;;;;3.78;3.67;;;9.10;99.90;;;;;;4916529;29;20242;-72
2021/01/20 17:23:15;;;;;;;3.90;3.80;;;9.20;99.90;;;;;;4917911;29;20218;-70
2021/01/20 17:25:42;;;;;;;5.00;4.53;;;9.10;99.90;;;;;;4918205;29;20202;-70
2021/01/20 17:28:08;;;;;;;4.10;4.00;;;9.20;99.90;;;;;;4917842;29;20286;-71
2021/01/20 17:30:34;;;;;;;2.95;2.85;;;9.10;99.90;;;;;;4918377;29;20275;-71
2021/01/20 17:33:00;;;;;;;4.90;4.60;;;9.10;99.90;;;;;;4917659;29;20213;-70
2021/01/20 17:35:26;;;;;;;3.08;2.85;;;9.10;99.90;;;;;;4918695;29;20210;-71
2021/01/20 17:37:53;;;;;;;2.80;2.70;;;9.20;99.90;;;;;;4918309;29;20203;-71
2021/01/20 17:40:19;;;;;;;4.13;3.92;;;9.10;99.90;;;;;;4918343;29;20222;-71
2021/01/20 17:42:46;;;;;;;4.18;4.03;;;9.10;99.90;;;;;;4916699;29;20249;-71
2021/01/20 17:45:13;;;;;;;3.30;3.20;;;9.10;99.90;;;;;;4918459;29;20231;-71
2021/01/20 17:47:40;;;;;;;3.90;3.60;;;9.20;99.90;;;;;;4918475;29;20213;-71
2021/01/20 17:50:07;;;;;;;4.72;4.50;;;9.20;99.90;;;;;;4913729;29;20667;-71
2021/01/20 17:52:33;;;;;;;3.60;3.40;;;9.10;99.90;;;;;;4917650;29;20656;-71
2021/01/20 17:54:59;;;;;;;3.60;3.50;;;9.10;99.90;;;;;;4917882;29;20207;-72
2021/01/20 17:57:25;;;;;;;3.15;3.03;;;9.20;99.90;;;;;;4899715;29;20219;-71